Accueil
METAR-TAF:

METAR-TAF

Aéroports :

Aéroport de Cherbourg - Maupertus

Cherbourg, France

latitude: 49-39N, longitude: 001-28W, altitude: 138 m

Observation

Le bulletin a été fait il y a 17 minutes, à 06:00 UTC
Vent 4 kt de nord
Température 10°C
Humidité 71%
Pression 1036 hPa
Visibilité 10 km ou plus
Nuages épars à une hauteur de 2500 ft
Nuages épars à une hauteur de 3100 ft
Nuages fragmentés à une hauteur de 4100 ft

METAR: LFRC 240600Z AUTO 36004KT 9999 SCT025 SCT031 BKN041 10/05 Q1036 NOSIG

Heure: 08:17 (06:17 UTC)

Prévision

Le bulletin a été fait il y a 1 heure et 17 minutes, à 05:00 UTC
Prévision valable du 24 à 06 UTC au 24 à 15 UTC
Vent 3 kt de direction variable
Visibilité 10 km ou plus
Nuages fragmentés à une hauteur de 3000 ft
Evoluant progressivement
du 24 à 10 UTC au 24 à 12 UTC
Vent 10 kt de nord/nord-est

TAF: LFRC 240500Z 2406/2415 VRB03KT 9999 BKN030 BECMG 2410/2412 02010KT

Observations et prévisions météorologiques de plus de 4000 aéroports (messages METAR et TAF).

Les stations disponibles sont représentées par des disques jaunes et rouges sur la carte.

Passer la souris dessus pour voir le nom de la station.

Cliquer dessus pour voir les observations et prévisions météorologiques.

Pour changer de carte: cliquez sur les boutons verts avec une croix noire pour zoomer, sur le bouton vert avec un tiret pour effectuer un zoom arrière, ou sur les flèches vertes pour les cartes adjacentes.


METAR-TAF: